Time,TemperatureF,DewpointF,PressureIn,WindDirection,WindDirectionDegrees,WindSpeedMPH,WindSpeedGustMPH,Humidity,HourlyPrecipIn,Conditions,Clouds,dailyrainin,SolarRadiationWatts/m^2,SoftwareType,DateUTC
2013-05-10 00:01:00,63.0,24.0,30.12,NW,323,10.0,19.0,22,-99.99,,,-99.99,0.000000,,2013-05-10 06:01:00,
2013-05-10 00:12:00,63.0,24.0,30.12,NNW,331,9.0,18.0,22,-99.99,,,-99.99,0.000000,,2013-05-10 06:12:00,
2013-05-10 00:21:00,63.0,24.0,30.12,NNW,331,9.0,18.0,22,-99.99,,,-99.99,0.000000,,2013-05-10 06:21:00,
2013-05-10 00:32:00,63.0,24.0,30.13,NNW,342,6.0,11.0,22,-99.99,,,-99.99,0.000000,,2013-05-10 06:32:00,
2013-05-10 00:42:00,63.0,23.0,30.13,NW,322,5.0,10.0,21,-99.99,,,-99.99,0.000000,,2013-05-10 06:42:00,
2013-05-10 00:52:00,63.0,23.0,30.13,NW,322,5.0,10.0,21,-99.99,,,-99.99,0.000000,,2013-05-10 06:52:00,
2013-05-10 01:02:00,63.0,23.0,30.13,NW,322,5.0,10.0,21,-99.99,,,-99.99,0.000000,,2013-05-10 07:02:00,
2013-05-10 01:12:00,63.0,22.0,30.13,WNW,297,3.0,7.0,20,-99.99,,,-99.99,0.000000,,2013-05-10 07:12:00,
2013-05-10 01:22:00,63.0,22.0,30.13,WNW,297,3.0,7.0,20,-99.99,,,-99.99,0.000000,,2013-05-10 07:22:00,
2013-05-10 01:31:00,63.0,22.0,30.13,North,4,3.0,7.0,20,-99.99,,,-99.99,0.000000,,2013-05-10 07:31:00,
2013-05-10 01:42:00,61.0,24.0,30.13,SW,221,7.0,18.0,23,-99.99,,,-99.99,0.000000,,2013-05-10 07:42:00,
2013-05-10 01:52:00,61.0,24.0,30.13,SW,221,7.0,18.0,23,-99.99,,,-99.99,0.000000,,2013-05-10 07:52:00,
2013-05-10 02:02:00,61.0,24.0,30.13,WNW,288,3.0,5.0,23,-99.99,,,-99.99,0.000000,,2013-05-10 08:02:00,
2013-05-10 02:12:00,62.0,24.0,30.13,NW,307,3.0,4.0,23,-99.99,,,-99.99,0.000000,,2013-05-10 08:12:00,
2013-05-10 02:22:00,62.0,24.0,30.13,NW,307,3.0,4.0,23,-99.99,,,-99.99,0.000000,,2013-05-10 08:22:00,
2013-05-10 02:32:00,63.0,23.0,30.12,North,355,2.0,5.0,21,-99.99,,,-99.99,0.000000,,2013-05-10 08:32:00,
2013-05-10 02:42:00,62.0,23.0,30.12,SE,131,5.0,7.0,22,-99.99,,,-99.99,0.000000,,2013-05-10 08:42:00,
2013-05-10 02:52:00,62.0,23.0,30.12,SE,131,5.0,7.0,22,-99.99,,,-99.99,0.000000,,2013-05-10 08:52:00,
2013-05-10 03:01:00,61.0,23.0,30.12,East,95,6.0,10.0,23,-99.99,,,-99.99,0.000000,,2013-05-10 09:01:00,
2013-05-10 03:11:00,61.0,24.0,30.12,East,91,8.0,10.0,24,-99.99,,,-99.99,0.000000,,2013-05-10 09:11:00,
2013-05-10 03:21:00,61.0,24.0,30.12,East,91,8.0,10.0,24,-99.99,,,-99.99,0.000000,,2013-05-10 09:21:00,
2013-05-10 03:32:00,60.0,24.0,30.12,SE,131,8.0,11.0,25,-99.99,,,-99.99,0.000000,,2013-05-10 09:32:00,
2013-05-10 03:42:00,61.0,24.0,30.12,South,184,6.0,9.0,24,-99.99,,,-99.99,0.000000,,2013-05-10 09:42:00,
2013-05-10 03:52:00,61.0,24.0,30.12,South,184,6.0,9.0,24,-99.99,,,-99.99,0.000000,,2013-05-10 09:52:00,
2013-05-10 04:03:00,61.0,24.0,30.12,ESE,114,6.0,9.0,24,-99.99,,,-99.99,0.000000,,2013-05-10 10:03:00,
2013-05-10 04:12:00,61.0,25.0,30.12,ESE,122,4.0,7.0,24,-99.99,,,-99.99,0.000000,,2013-05-10 10:12:00,
2013-05-10 04:23:00,61.0,25.0,30.12,ESE,122,4.0,7.0,24,-99.99,,,-99.99,0.000000,,2013-05-10 10:23:00,
2013-05-10 04:32:00,61.0,25.0,30.12,SSW,195,7.0,13.0,25,-99.99,,,-99.99,0.000000,,2013-05-10 10:32:00,
2013-05-10 04:42:00,60.0,26.0,30.11,NE,50,14.0,30.0,27,-99.99,,,-99.99,0.000000,,2013-05-10 10:42:00,
2013-05-10 04:53:00,60.0,26.0,30.11,NE,50,14.0,30.0,27,-99.99,,,-99.99,0.000000,,2013-05-10 10:53:00,
2013-05-10 05:02:00,59.0,26.0,30.11,NE,49,10.0,16.0,28,-99.99,,,-99.99,0.000000,,2013-05-10 11:02:00,
2013-05-10 05:12:00,58.0,27.0,30.12,ESE,108,11.0,17.0,29,-99.99,,,-99.99,0.000000,,2013-05-10 11:12:00,
2013-05-10 05:22:00,58.0,27.0,30.12,ESE,108,11.0,17.0,29,-99.99,,,-99.99,0.000000,,2013-05-10 11:22:00,
2013-05-10 05:32:00,57.0,28.0,30.13,SE,139,14.0,19.0,32,-99.99,,,-99.99,0.000000,,2013-05-10 11:32:00,
2013-05-10 05:42:00,57.0,30.0,30.13,SE,126,15.0,21.0,35,-99.99,,,-99.99,0.000000,,2013-05-10 11:42:00,
2013-05-10 05:52:00,57.0,30.0,30.13,SE,126,15.0,21.0,35,-99.99,,,-99.99,0.000000,,2013-05-10 11:52:00,
2013-05-10 06:01:00,57.0,30.0,30.13,ESE,109,13.0,17.0,35,-99.99,,,-99.99,0.000000,,2013-05-10 12:01:00,
2013-05-10 06:12:00,56.0,30.0,30.13,East,95,12.0,16.0,37,-99.99,,,-99.99,0.000000,,2013-05-10 12:12:00,
2013-05-10 06:21:00,56.0,30.0,30.13,East,95,12.0,16.0,37,-99.99,,,-99.99,0.000000,,2013-05-10 12:21:00,
2013-05-10 06:32:00,56.0,31.0,30.15,ENE,77,7.0,10.0,38,-99.99,,,-99.99,0.000000,,2013-05-10 12:32:00,
2013-05-10 06:42:00,56.0,31.0,30.15,ESE,110,4.0,7.0,38,-99.99,,,-99.99,1.390000,,2013-05-10 12:42:00,
2013-05-10 06:52:00,56.0,31.0,30.15,ESE,110,4.0,7.0,38,-99.99,,,-99.99,1.390000,,2013-05-10 12:52:00,
2013-05-10 07:01:00,56.0,31.0,30.15,ESE,110,4.0,7.0,38,-99.99,,,-99.99,1.390000,,2013-05-10 13:01:00,
2013-05-10 07:11:00,57.0,29.0,30.16,SE,127,6.0,9.0,34,-99.99,,,-99.99,26.500000,,2013-05-10 13:11:00,
2013-05-10 07:21:00,57.0,29.0,30.16,SE,127,6.0,9.0,34,-99.99,,,-99.99,26.500000,,2013-05-10 13:21:00,
2013-05-10 07:32:00,57.0,29.0,30.16,SE,127,6.0,9.0,34,-99.99,,,-99.99,26.500000,,2013-05-10 13:32:00,
2013-05-10 07:41:00,54.0,33.0,30.17,ENE,72,11.0,14.0,44,-99.99,,,-99.99,64.150002,,2013-05-10 13:41:00,
2013-05-10 07:52:00,54.0,33.0,30.17,ENE,72,11.0,14.0,44,-99.99,,,-99.99,64.150002,,2013-05-10 13:52:00,
2013-05-10 08:02:00,54.0,33.0,30.17,ENE,72,11.0,14.0,44,-99.99,,,-99.99,64.150002,,2013-05-10 14:02:00,
2013-05-10 08:11:00,54.0,36.0,30.17,ENE,77,21.0,27.0,49,-99.99,,,-99.99,247.550003,,2013-05-10 14:11:00,
2013-05-10 08:21:00,54.0,36.0,30.17,ENE,77,21.0,27.0,49,-99.99,,,-99.99,247.550003,,2013-05-10 14:21:00,
2013-05-10 08:32:00,55.0,36.0,30.17,East,79,24.0,29.0,49,-99.99,,,-99.99,322.170013,,2013-05-10 14:32:00,
2013-05-10 08:42:00,55.0,36.0,30.18,ENE,76,21.0,26.0,48,-99.99,,,-99.99,369.589996,,2013-05-10 14:42:00,
2013-05-10 08:52:00,55.0,36.0,30.18,ENE,76,21.0,26.0,48,-99.99,,,-99.99,369.589996,,2013-05-10 14:52:00,
2013-05-10 09:02:00,55.0,36.0,30.18,ENE,76,21.0,26.0,48,-99.99,,,-99.99,369.589996,,2013-05-10 15:02:00,
2013-05-10 09:20:00,-999.0,-99.9,30.19,ENE,76,18.0,23.0,48,-99.99,,,-99.99,490.230011,,2013-05-10 15:20:00,
2013-05-10 09:32:00,55.0,36.0,30.19,ENE,76,18.0,23.0,48,-99.99,,,-99.99,490.230011,,2013-05-10 15:32:00,
2013-05-10 09:42:00,56.0,36.0,30.19,East,79,16.0,21.0,46,-99.99,,,-99.99,559.960022,,2013-05-10 15:42:00,
2013-05-10 09:53:00,56.0,36.0,30.19,East,79,16.0,21.0,46,-99.99,,,-99.99,559.960022,,2013-05-10 15:53:00,
2013-05-10 10:02:00,57.0,36.0,30.19,East,82,15.0,22.0,44,-99.99,,,-99.99,610.169983,,2013-05-10 16:02:00,
2013-05-10 10:12:00,57.0,35.0,30.19,East,87,15.0,19.0,43,-99.99,,,-99.99,659.679993,,2013-05-10 16:12:00,
2013-05-10 10:23:00,57.0,35.0,30.19,East,87,15.0,19.0,43,-99.99,,,-99.99,659.679993,,2013-05-10 16:23:00,
2013-05-10 10:32:00,58.0,35.0,30.20,East,85,14.0,20.0,42,-99.99,,,-99.99,804.719971,,2013-05-10 16:32:00,
2013-05-10 10:42:00,59.0,35.0,30.20,East,80,14.0,20.0,40,-99.99,,,-99.99,916.989990,,2013-05-10 16:42:00,
2013-05-10 10:53:00,59.0,35.0,30.20,East,80,14.0,20.0,40,-99.99,,,-99.99,916.989990,,2013-05-10 16:53:00,
2013-05-10 11:02:00,59.0,35.0,30.20,East,80,14.0,20.0,40,-99.99,,,-99.99,916.989990,,2013-05-10 17:02:00,
2013-05-10 11:12:00,59.0,35.0,30.20,East,80,14.0,20.0,40,-99.99,,,-99.99,916.989990,,2013-05-10 17:12:00,
2013-05-10 16:32:00,61.0,27.0,30.19,West,277,16.0,22.0,26,-99.99,,,-99.99,152.720001,,2013-05-10 22:32:00,
2013-05-10 16:42:00,59.0,32.0,30.20,West,266,28.0,47.0,36,-99.99,,,-99.99,99.019997,,2013-05-10 22:42:00,
2013-05-10 16:52:00,59.0,32.0,30.20,West,266,28.0,47.0,36,-99.99,,,-99.99,99.019997,,2013-05-10 22:52:00,
2013-05-10 17:02:00,54.0,38.0,30.21,WSW,253,29.0,39.0,53,-99.99,,,-99.99,116.449997,,2013-05-10 23:02:00,
2013-05-10 17:12:00,53.0,39.0,30.20,WSW,255,35.0,43.0,58,-99.99,,,-99.99,150.619995,,2013-05-10 23:12:00,
2013-05-10 17:22:00,53.0,39.0,30.20,WSW,255,35.0,43.0,58,-99.99,,,-99.99,150.619995,,2013-05-10 23:22:00,
2013-05-10 17:32:00,52.0,40.0,30.19,WSW,254,37.0,48.0,63,-99.99,,,-99.99,144.350006,,2013-05-10 23:32:00,
2013-05-10 17:42:00,52.0,40.0,-100.00,West,270,33.0,41.0,63,-99.99,,,-99.99,82.290001,,2013-05-10 23:42:00,
2013-05-10 17:52:00,52.0,40.0,-100.00,West,270,33.0,41.0,63,-99.99,,,-99.99,82.290001,,2013-05-10 23:52:00,
2013-05-10 18:02:00,52.0,40.0,-100.00,West,270,33.0,41.0,63,-99.99,,,-99.99,82.290001,,2013-05-11 00:02:00,
2013-05-10 18:11:00,52.0,39.0,-100.00,WNW,302,30.0,39.0,59,-99.99,,,-99.99,108.089996,,2013-05-11 00:11:00,
2013-05-10 18:21:00,52.0,39.0,-100.00,WNW,302,30.0,39.0,59,-99.99,,,-99.99,108.089996,,2013-05-11 00:21:00,
2013-05-10 18:32:00,54.0,35.0,-100.00,NW,313,23.0,34.0,47,-99.99,,,-99.99,111.570000,,2013-05-11 00:32:00,
2013-05-10 18:42:00,56.0,32.0,24.61,NW,312,19.0,31.0,40,-99.99,,,-99.99,91.349998,,2013-05-11 00:42:00,
2013-05-10 18:52:00,56.0,32.0,24.61,NW,312,19.0,31.0,40,-99.99,,,-99.99,91.349998,,2013-05-11 00:52:00,
2013-05-10 19:01:00,55.0,34.0,24.74,WNW,285,19.0,27.0,44,-99.99,,,-99.99,63.459999,,2013-05-11 01:01:00,
2013-05-10 19:11:00,54.0,35.0,24.98,WNW,282,16.0,21.0,47,-99.99,,,-99.99,53.000000,,2013-05-11 01:11:00,
2013-05-10 19:21:00,54.0,35.0,24.98,WNW,282,16.0,21.0,47,-99.99,,,-99.99,53.000000,,2013-05-11 01:21:00,
2013-05-10 19:32:00,55.0,34.0,25.21,West,280,12.0,17.0,45,-99.99,,,-99.99,60.669998,,2013-05-11 01:32:00,
2013-05-10 19:42:00,55.0,34.0,-100.00,West,259,14.0,19.0,45,-99.99,,,-99.99,67.639999,,2013-05-11 01:42:00,
2013-05-10 19:52:00,55.0,34.0,-100.00,West,259,14.0,19.0,45,-99.99,,,-99.99,67.639999,,2013-05-11 01:52:00,
2013-05-10 20:02:00,55.0,35.0,25.17,West,259,12.0,15.0,47,-99.99,,,-99.99,50.209999,,2013-05-11 02:02:00,
2013-05-10 20:11:00,54.0,35.0,25.12,WSW,252,8.0,10.0,48,-99.99,,,-99.99,26.500000,,2013-05-11 02:11:00,
2013-05-10 20:22:00,54.0,35.0,25.12,WSW,252,8.0,10.0,48,-99.99,,,-99.99,26.500000,,2013-05-11 02:22:00,
2013-05-10 20:32:00,54.0,35.0,25.14,WSW,254,4.0,6.0,49,-99.99,,,-99.99,5.580000,,2013-05-11 02:32:00,
2013-05-10 20:42:00,54.0,35.0,24.95,WSW,258,2.0,3.0,49,-99.99,,,-99.99,0.700000,,2013-05-11 02:42:00,
2013-05-10 20:52:00,54.0,35.0,24.95,WSW,258,2.0,3.0,49,-99.99,,,-99.99,0.700000,,2013-05-11 02:52:00,
2013-05-10 21:01:00,54.0,35.0,24.95,WSW,258,2.0,3.0,49,-99.99,,,-99.99,0.700000,,2013-05-11 03:01:00,
2013-05-10 21:11:00,52.0,42.0,24.93,ENE,69,17.0,22.0,69,-99.99,,,-99.99,0.000000,,2013-05-11 03:11:00,
2013-05-10 21:21:00,52.0,42.0,24.93,ENE,69,17.0,22.0,69,-99.99,,,-99.99,0.000000,,2013-05-11 03:21:00,
2013-05-10 21:33:00,51.0,42.0,25.04,ENE,65,18.0,24.0,71,-99.99,,,-99.99,0.000000,,2013-05-11 03:33:00,
2013-05-10 21:42:00,50.0,41.0,24.97,ENE,66,19.0,23.0,70,-99.99,,,-99.99,0.000000,,2013-05-11 03:42:00,
2013-05-10 21:53:00,50.0,41.0,24.97,ENE,66,19.0,23.0,70,-99.99,,,-99.99,0.000000,,2013-05-11 03:53:00,
2013-05-10 22:02:00,50.0,41.0,24.97,ENE,66,19.0,23.0,70,-99.99,,,-99.99,0.000000,,2013-05-11 04:02:00,
2013-05-10 22:12:00,49.0,41.0,24.86,ENE,67,18.0,21.0,74,-99.99,,,-99.99,0.000000,,2013-05-11 04:12:00,
2013-05-10 22:23:00,49.0,41.0,24.86,ENE,67,18.0,21.0,74,-99.99,,,-99.99,0.000000,,2013-05-11 04:23:00,
2013-05-10 22:33:00,49.0,41.0,24.70,ENE,59,19.0,22.0,75,-99.99,,,-99.99,0.000000,,2013-05-11 04:33:00,
2013-05-10 22:43:00,49.0,41.0,24.97,ENE,74,22.0,24.0,75,-99.99,,,-99.99,0.000000,,2013-05-11 04:43:00,
2013-05-10 22:52:00,49.0,41.0,24.97,ENE,74,22.0,24.0,75,-99.99,,,-99.99,0.000000,,2013-05-11 04:52:00,
2013-05-10 23:02:00,49.0,41.0,24.95,East,87,21.0,23.0,75,-99.99,,,-99.99,0.000000,,2013-05-11 05:02:00,
2013-05-10 23:12:00,49.0,41.0,25.12,East,95,19.0,22.0,71,-99.99,,,-99.99,0.000000,,2013-05-11 05:12:00,
2013-05-10 23:21:00,49.0,41.0,25.12,East,95,19.0,22.0,71,-99.99,,,-99.99,0.000000,,2013-05-11 05:21:00,
2013-05-10 23:32:00,50.0,40.0,25.16,ESE,104,19.0,23.0,69,-99.99,,,-99.99,0.000000,,2013-05-11 05:32:00,
2013-05-10 23:42:00,50.0,40.0,25.21,East,100,18.0,21.0,69,-99.99,,,-99.99,0.000000,,2013-05-11 05:42:00,
2013-05-10 23:52:00,50.0,40.0,25.21,East,100,18.0,21.0,69,-99.99,,,-99.99,0.000000,,2013-05-11 05:52:00,